createdAt,value
2023-01-13T04:56:44.640Z,20.07
2023-01-13T04:59:12.423Z,18.52
2023-01-13T05:01:40.090Z,18.33
2023-01-13T05:04:07.619Z,17.23
2023-01-13T05:06:34.127Z,18.13
2023-01-13T05:09:00.644Z,18.97
2023-01-13T05:11:45.784Z,16.90
2023-01-13T05:14:30.582Z,15.82
2023-01-13T05:17:03.419Z,17.70
2023-01-13T05:19:35.024Z,17.95
2023-01-13T05:22:20.710Z,18.10
2023-01-13T05:25:05.637Z,17.95
2023-01-13T05:27:33.679Z,17.42
2023-01-13T05:30:00.416Z,17.35
2023-01-13T05:32:29.976Z,16.13
2023-01-13T05:34:56.989Z,16.80
2023-01-13T05:37:24.546Z,17.98
2023-01-13T05:40:10.218Z,18.23
2023-01-13T05:42:54.993Z,17.65
2023-01-13T05:45:21.839Z,19.27
2023-01-13T05:47:48.350Z,18.00
2023-01-13T05:50:15.235Z,18.10
2023-01-13T05:52:41.838Z,18.60
2023-01-13T05:55:08.754Z,18.55
2023-01-13T05:57:35.235Z,17.65
2023-01-13T06:00:02.005Z,18.23
2023-01-13T06:02:28.616Z,18.30
2023-01-13T06:04:55.093Z,17.75
2023-01-13T06:07:21.633Z,17.02
2023-01-13T06:09:48.226Z,19.00
2023-01-13T06:12:14.708Z,16.07
2023-01-13T06:14:41.265Z,16.55
2023-01-13T06:17:09.145Z,16.58
2023-01-13T06:19:35.749Z,17.48
2023-01-13T06:22:10.779Z,17.65
2023-01-13T06:24:37.447Z,17.50
2023-01-13T06:27:08.430Z,16.45
2023-01-13T06:29:42.797Z,16.13
2023-01-13T06:32:25.743Z,17.10
2023-01-13T06:35:04.705Z,16.88
2023-01-13T06:37:32.871Z,16.37
2023-01-13T06:40:03.083Z,17.38
2023-01-13T06:42:49.124Z,16.65
2023-01-13T06:45:15.672Z,16.85
2023-01-13T06:47:42.442Z,17.58
2023-01-13T06:50:11.906Z,17.60
2023-01-13T06:52:38.411Z,16.35
2023-01-13T06:55:05.372Z,17.77
2023-01-13T06:57:31.904Z,17.40
2023-01-13T06:59:58.462Z,16.55
2023-01-13T07:02:25.090Z,16.97
2023-01-13T07:04:51.719Z,17.05
2023-01-13T07:07:18.246Z,16.85
2023-01-13T07:09:44.702Z,16.45
2023-01-13T07:12:12.352Z,17.02
2023-01-13T07:14:57.296Z,16.53
2023-01-13T07:17:25.435Z,15.32
2023-01-13T07:19:52.602Z,15.82
2023-01-13T07:22:19.122Z,16.60
2023-01-13T07:24:45.614Z,16.15
2023-01-13T07:27:12.171Z,15.73
2023-01-13T07:29:38.777Z,15.52
2023-01-13T07:32:06.949Z,15.77
2023-01-13T07:34:39.007Z,15.75
2023-01-13T07:37:05.634Z,14.93
2023-01-13T07:39:32.113Z,14.97
2023-01-13T07:42:17.304Z,15.55
2023-01-13T07:44:43.810Z,14.13
2023-01-13T07:47:11.263Z,15.25
2023-01-13T07:49:37.851Z,14.40
2023-01-13T07:52:04.741Z,13.97
2023-01-13T07:54:40.579Z,14.68
2023-01-13T07:57:08.137Z,13.57
2023-01-13T07:59:34.718Z,14.68
2023-01-13T08:02:01.427Z,14.50
2023-01-13T08:04:28.043Z,14.63
2023-01-13T08:06:54.545Z,13.50
2023-01-13T08:09:21.174Z,13.10
2023-01-13T08:12:10.386Z,13.85
2023-01-13T08:14:37.126Z,12.43
2023-01-13T08:17:03.964Z,14.03
2023-01-13T08:19:33.402Z,13.70
2023-01-13T08:22:01.095Z,13.82
2023-01-13T08:24:27.869Z,13.10
2023-01-13T08:26:54.448Z,13.73
2023-01-13T08:29:21.017Z,14.80
2023-01-13T08:31:49.871Z,14.68
2023-01-13T08:34:16.447Z,12.80
2023-01-13T08:36:43.085Z,12.30
2023-01-13T08:39:09.610Z,12.50
2023-01-13T08:41:54.948Z,11.73
2023-01-13T08:44:26.465Z,12.57
2023-01-13T08:46:53.388Z,12.70
2023-01-13T08:49:20.245Z,11.95
2023-01-13T08:51:46.890Z,13.15
2023-01-13T08:54:13.609Z,11.90
2023-01-13T08:56:49.664Z,12.77
2023-01-13T08:59:20.425Z,11.68
2023-01-13T09:01:49.157Z,12.35
2023-01-13T09:04:20.536Z,12.45
2023-01-13T09:06:47.555Z,12.27
2023-01-13T09:09:14.201Z,12.38
2023-01-13T09:12:01.602Z,11.95
2023-01-13T09:14:29.873Z,12.70
2023-01-13T09:16:56.537Z,11.95
2023-01-13T09:19:23.062Z,12.07
2023-01-13T09:21:49.549Z,13.20
2023-01-13T09:24:16.374Z,12.95
2023-01-13T09:26:43.059Z,12.60
2023-01-13T09:29:09.586Z,12.20
2023-01-13T09:31:36.154Z,12.63
2023-01-13T09:34:22.088Z,12.30
2023-01-13T09:36:48.846Z,13.68
2023-01-13T09:39:15.433Z,12.43
2023-01-13T09:42:03.760Z,13.20
2023-01-13T09:44:43.178Z,13.43
2023-01-13T09:47:18.663Z,12.13
2023-01-13T09:49:45.541Z,14.02
2023-01-13T09:52:26.702Z,13.68
2023-01-13T09:55:00.898Z,13.02
2023-01-13T09:57:28.640Z,14.63
2023-01-13T09:59:55.172Z,14.27
2023-01-13T10:03:01.772Z,14.32
2023-01-13T10:06:00.486Z,14.00
2023-01-13T10:08:30.685Z,14.35
2023-01-13T10:10:59.618Z,14.03
2023-01-13T10:13:28.795Z,14.10
2023-01-13T10:16:10.414Z,13.95
2023-01-13T10:19:00.760Z,14.63
2023-01-13T10:21:33.113Z,14.73
2023-01-13T10:24:04.417Z,13.77
2023-01-13T10:26:42.911Z,14.55
2023-01-13T10:29:25.280Z,14.60
2023-01-13T10:31:58.121Z,13.90
2023-01-13T10:34:25.853Z,15.48
2023-01-13T10:37:07.981Z,14.47
2023-01-13T10:40:00.914Z,13.30
2023-01-13T10:42:27.555Z,14.63
2023-01-13T10:44:56.140Z,13.75
2023-01-13T10:47:24.706Z,13.73
2023-01-13T10:50:13.030Z,14.17
2023-01-13T10:52:43.451Z,14.30
2023-01-13T10:55:33.432Z,14.77
2023-01-13T10:58:20.180Z,13.68
2023-01-13T11:00:46.982Z,12.80
2023-01-13T11:03:19.306Z,14.70
2023-01-13T11:05:55.877Z,13.95
2023-01-13T11:08:28.433Z,14.20
2023-01-13T11:10:59.882Z,13.88
2023-01-13T11:13:34.168Z,14.52
2023-01-13T11:16:05.327Z,13.07
2023-01-13T11:18:37.966Z,13.65
2023-01-13T11:21:15.180Z,13.48
2023-01-13T11:23:46.404Z,14.00
2023-01-13T11:26:18.498Z,14.80
2023-01-13T11:28:56.106Z,14.87
2023-01-13T11:31:26.570Z,15.48
2023-01-13T11:34:10.212Z,14.60
2023-01-13T11:36:40.722Z,15.65
2023-01-13T11:39:27.012Z,13.98
2023-01-13T11:42:21.172Z,15.70
2023-01-13T11:44:59.123Z,16.45
2023-01-13T11:47:26.573Z,14.18
2023-01-13T11:49:53.066Z,15.55
2023-01-13T11:52:24.485Z,16.30
2023-01-13T11:55:00.069Z,15.13
2023-01-13T11:57:52.509Z,15.25
2023-01-13T12:00:54.520Z,16.30
2023-01-13T12:03:32.181Z,15.57
2023-01-13T12:06:22.168Z,15.75
2023-01-13T12:09:01.453Z,16.70
2023-01-13T12:11:33.447Z,15.43
2023-01-13T12:14:38.393Z,15.57
2023-01-13T12:17:14.127Z,15.07
2023-01-13T12:19:44.274Z,15.48
2023-01-13T12:22:17.767Z,16.43
2023-01-13T12:24:47.472Z,17.33
2023-01-13T12:27:40.536Z,15.77
2023-01-13T12:30:37.226Z,17.25
2023-01-13T12:33:18.661Z,16.55
2023-01-13T12:35:55.551Z,17.80
2023-01-13T12:38:37.815Z,15.73
2023-01-13T12:41:32.177Z,18.08
2023-01-13T12:44:17.424Z,18.02
2023-01-13T12:46:56.239Z,17.90
2023-01-13T12:49:24.037Z,17.10
2023-01-13T12:51:56.535Z,17.83
2023-01-13T12:54:41.106Z,18.00
2023-01-13T12:57:27.934Z,20.15
2023-01-13T13:00:15.458Z,18.58
2023-01-13T13:02:44.447Z,18.37
2023-01-13T13:05:14.079Z,19.77
2023-01-13T13:07:46.500Z,19.08
2023-01-13T13:10:31.048Z,21.13
2023-01-13T13:13:20.103Z,18.23
2023-01-13T13:15:48.179Z,18.57
2023-01-13T13:18:17.368Z,19.75
2023-01-13T13:21:04.254Z,19.30
2023-01-13T13:23:37.102Z,18.63
2023-01-13T13:26:31.753Z,17.30
2023-01-13T13:29:30.951Z,19.07
2023-01-13T13:32:03.531Z,20.35
2023-01-13T13:34:38.966Z,19.70
2023-01-13T13:37:32.815Z,19.20
2023-01-13T13:40:24.061Z,19.58
2023-01-13T13:43:15.332Z,18.83
2023-01-13T13:46:10.421Z,18.23
2023-01-13T13:48:37.333Z,19.17
2023-01-13T13:51:23.384Z,18.98
2023-01-13T13:53:49.888Z,17.80
2023-01-13T13:56:20.238Z,18.20
2023-01-13T13:58:47.677Z,19.75
2023-01-13T14:01:36.900Z,19.35
2023-01-13T14:04:11.687Z,18.23
2023-01-13T14:06:38.197Z,17.35
2023-01-13T14:09:12.401Z,17.63
2023-01-13T14:11:41.172Z,18.55
2023-01-13T14:14:13.644Z,18.35
2023-01-13T14:16:41.083Z,17.63
2023-01-13T14:19:25.374Z,18.10
2023-01-13T14:21:52.005Z,18.07
2023-01-13T14:24:21.026Z,19.17
2023-01-13T14:26:51.888Z,17.30
2023-01-13T14:29:21.940Z,18.95
2023-01-13T14:31:50.159Z,18.13
2023-01-13T14:34:31.468Z,17.47
2023-01-13T14:36:59.938Z,17.60
2023-01-13T14:39:35.084Z,16.95
2023-01-13T14:42:01.661Z,16.95
2023-01-13T14:44:33.400Z,17.75
2023-01-13T14:47:27.408Z,16.27
2023-01-13T14:50:06.855Z,17.83
2023-01-13T14:52:37.275Z,17.60
2023-01-13T14:55:10.174Z,17.33
2023-01-13T14:57:39.605Z,16.17
2023-01-13T15:00:15.192Z,17.00
2023-01-13T15:02:57.226Z,15.85
2023-01-13T15:05:32.983Z,15.68
2023-01-13T15:08:05.320Z,15.63
2023-01-13T15:10:38.144Z,15.65
2023-01-13T15:13:06.636Z,15.63
2023-01-13T15:15:35.800Z,15.25
2023-01-13T15:18:09.544Z,15.05
2023-01-13T15:20:35.994Z,15.60
2023-01-13T15:23:02.533Z,17.42
2023-01-13T15:25:33.444Z,15.10
2023-01-13T15:28:00.144Z,15.57
2023-01-13T15:30:27.575Z,15.80
2023-01-13T15:32:55.408Z,16.50
2023-01-13T15:35:23.705Z,16.23
2023-01-13T15:37:50.612Z,16.40
2023-01-13T15:40:30.654Z,16.85
2023-01-13T15:43:16.185Z,16.75
2023-01-13T15:46:01.217Z,16.67
2023-01-13T15:48:29.524Z,17.38
2023-01-13T15:50:56.082Z,16.93
2023-01-13T15:53:22.693Z,17.05
2023-01-13T15:55:54.139Z,17.52
2023-01-13T15:58:23.279Z,17.77
2023-01-13T16:00:49.998Z,16.80
2023-01-13T16:03:17.272Z,17.60
2023-01-13T16:05:44.588Z,15.50
2023-01-13T16:08:17.808Z,17.45
2023-01-13T16:10:45.247Z,16.55
2023-01-13T16:13:12.617Z,17.77
2023-01-13T16:15:47.463Z,16.07
2023-01-13T16:18:24.258Z,15.98
2023-01-13T16:20:55.268Z,17.63
2023-01-13T16:23:22.882Z,16.10
2023-01-13T16:25:50.333Z,17.92
2023-01-13T16:28:22.130Z,15.70
2023-01-13T16:30:48.636Z,16.33
2023-01-13T16:33:15.335Z,16.92
2023-01-13T16:35:44.712Z,17.38
2023-01-13T16:38:28.504Z,16.40
2023-01-13T16:40:56.937Z,16.77
2023-01-13T16:43:23.439Z,16.45
2023-01-13T16:45:50.027Z,16.65
2023-01-13T16:48:20.272Z,16.90
2023-01-13T16:50:46.963Z,15.82
2023-01-13T16:53:13.496Z,15.70
2023-01-13T16:55:41.412Z,16.77
2023-01-13T16:58:17.345Z,16.05
2023-01-13T17:00:46.845Z,15.52
2023-01-13T17:03:14.624Z,16.33
2023-01-13T17:05:43.035Z,16.13
2023-01-13T17:08:18.065Z,16.60
2023-01-13T17:10:47.937Z,16.65
2023-01-13T17:13:16.784Z,17.50
2023-01-13T17:15:44.712Z,16.60
2023-01-13T17:18:13.305Z,16.23
2023-01-13T17:20:40.014Z,15.98
2023-01-13T17:23:06.545Z,16.55
2023-01-13T17:25:33.068Z,17.90
2023-01-13T17:27:59.618Z,14.80
2023-01-13T17:30:26.168Z,16.40
2023-01-13T17:32:52.781Z,16.38
2023-01-13T17:35:24.762Z,16.15
2023-01-13T17:37:52.941Z,17.02
2023-01-13T17:40:19.826Z,13.73
2023-01-13T17:42:46.357Z,14.33
2023-01-13T17:45:12.930Z,14.23
2023-01-13T17:47:39.440Z,16.40
2023-01-13T17:50:06.350Z,17.23
2023-01-13T17:52:33.851Z,14.35
2023-01-13T17:55:03.381Z,14.37
2023-01-13T17:57:29.930Z,15.02
2023-01-13T17:59:58.252Z,15.40
2023-01-13T18:02:24.973Z,14.77
2023-01-13T18:04:51.646Z,14.85
2023-01-13T18:07:18.171Z,15.10
2023-01-13T18:09:44.739Z,14.77
2023-01-13T18:12:11.584Z,15.20
2023-01-13T18:14:38.120Z,15.35
2023-01-13T18:17:04.733Z,16.27
2023-01-13T18:19:50.141Z,14.73
2023-01-13T18:22:35.017Z,16.70
2023-01-13T18:25:21.903Z,14.68
2023-01-13T18:27:49.608Z,15.85
2023-01-13T18:30:16.433Z,14.93
2023-01-13T18:32:43.033Z,15.83
2023-01-13T18:35:11.156Z,15.50
2023-01-13T18:37:40.346Z,15.65
2023-01-13T18:40:10.419Z,16.63
2023-01-13T18:42:54.847Z,16.30
2023-01-13T18:45:27.478Z,15.87
2023-01-13T18:47:55.723Z,14.50
2023-01-13T18:50:23.122Z,16.50
2023-01-13T18:52:52.810Z,15.98
2023-01-13T18:55:19.889Z,15.00
2023-01-13T18:57:46.942Z,15.73
2023-01-13T19:00:16.797Z,16.02
2023-01-13T19:02:44.233Z,16.10
2023-01-13T19:05:10.805Z,16.92
2023-01-13T19:07:37.324Z,16.25
2023-01-13T19:10:05.524Z,16.03
2023-01-13T19:12:33.653Z,16.98
2023-01-13T19:15:01.319Z,15.93
2023-01-13T19:17:31.743Z,16.08
2023-01-13T19:19:59.038Z,16.98
2023-01-13T19:22:30.932Z,16.13
2023-01-13T19:24:58.209Z,17.00
2023-01-13T19:27:25.348Z,16.52
2023-01-13T19:29:53.705Z,16.42
2023-01-13T19:32:21.791Z,15.65
2023-01-13T19:34:50.865Z,16.00
2023-01-13T19:37:17.990Z,16.92
2023-01-13T19:39:45.055Z,16.48
2023-01-13T19:42:30.625Z,16.52
2023-01-13T19:45:15.545Z,16.67
2023-01-13T19:47:43.920Z,15.73
2023-01-13T19:50:10.892Z,16.80
2023-01-13T19:52:37.500Z,17.05
2023-01-13T19:55:04.238Z,17.67
2023-01-13T19:57:30.802Z,17.38
2023-01-13T19:59:57.433Z,17.47
2023-01-13T20:02:31.583Z,16.27
2023-01-13T20:05:00.035Z,16.77
2023-01-13T20:07:28.517Z,16.90
2023-01-13T20:09:57.662Z,17.75
2023-01-13T20:12:25.301Z,17.23
2023-01-13T20:14:51.961Z,17.65
2023-01-13T20:17:20.103Z,17.90
2023-01-13T20:19:46.874Z,18.60
2023-01-13T20:22:13.682Z,17.67
2023-01-13T20:24:40.179Z,18.47
2023-01-13T20:27:06.743Z,19.60
2023-01-13T20:29:34.045Z,17.45
2023-01-13T20:32:01.609Z,19.77
2023-01-13T20:34:28.348Z,19.35
2023-01-13T20:36:54.930Z,17.60
2023-01-13T20:39:25.742Z,18.65
2023-01-13T20:42:11.483Z,19.00
2023-01-13T20:44:38.043Z,20.35
2023-01-13T20:47:04.891Z,17.63
2023-01-13T20:49:31.629Z,19.07
2023-01-13T20:51:58.696Z,19.90
2023-01-13T20:54:25.795Z,20.55
2023-01-13T20:56:52.296Z,20.08
